createdAt,value
2022-10-09T00:01:15.046Z,47.60
2022-10-09T00:03:44.486Z,38.45
2022-10-09T00:06:14.586Z,32.70
2022-10-09T00:08:43.928Z,38.55
2022-10-09T00:11:18.995Z,40.13
2022-10-09T00:13:47.555Z,42.47
2022-10-09T00:16:16.621Z,43.78
2022-10-09T00:18:44.506Z,45.38
2022-10-09T00:21:24.403Z,37.20
2022-10-09T00:23:53.850Z,37.47
2022-10-09T00:26:21.598Z,30.70
2022-10-09T00:28:49.589Z,38.05
2022-10-09T00:31:17.808Z,36.10
2022-10-09T00:33:45.989Z,39.15
2022-10-09T00:36:22.899Z,38.55
2022-10-09T00:38:51.279Z,32.95
2022-10-09T00:41:26.175Z,31.00
2022-10-09T00:43:59.825Z,32.67
2022-10-09T00:46:50.461Z,35.65
2022-10-09T00:49:27.326Z,36.65
2022-10-09T00:51:57.648Z,29.02
2022-10-09T00:54:29.558Z,28.20
2022-10-09T00:56:56.863Z,31.33
2022-10-09T00:59:26.015Z,30.08
2022-10-09T01:01:54.088Z,20.40
2022-10-09T01:04:21.293Z,27.83
2022-10-09T01:06:51.518Z,23.63
2022-10-09T01:09:25.563Z,19.00
2022-10-09T01:11:59.022Z,23.08
2022-10-09T01:14:30.524Z,24.88
2022-10-09T01:17:00.565Z,18.90
2022-10-09T01:19:44.903Z,25.65
2022-10-09T01:22:56.994Z,27.40
2022-10-09T01:25:34.943Z,26.23
2022-10-09T01:28:06.626Z,28.75
2022-10-09T01:30:35.757Z,27.27
2022-10-09T01:33:04.389Z,23.58
2022-10-09T01:35:31.946Z,25.90
2022-10-09T01:38:01.399Z,33.53
2022-10-09T01:40:29.479Z,33.55
2022-10-09T01:42:56.883Z,30.00
2022-10-09T01:45:24.399Z,33.42
2022-10-09T01:47:51.694Z,32.15
2022-10-09T01:50:21.558Z,29.88
2022-10-09T01:52:54.468Z,26.27
2022-10-09T01:55:36.459Z,33.90
2022-10-09T01:58:19.170Z,27.08
2022-10-09T02:00:54.609Z,22.88
2022-10-09T02:03:24.048Z,23.10
2022-10-09T02:05:53.008Z,27.90
2022-10-09T02:08:22.569Z,32.35
2022-10-09T02:10:55.338Z,22.38
2022-10-09T02:13:23.540Z,29.17
2022-10-09T02:16:13.775Z,25.42
2022-10-09T02:18:48.834Z,28.33
2022-10-09T02:21:23.148Z,22.03
2022-10-09T02:23:51.948Z,24.00
2022-10-09T02:26:20.224Z,40.28
2022-10-09T02:28:47.712Z,30.45
2022-10-09T02:31:26.372Z,20.00
2022-10-09T02:34:01.163Z,22.67
2022-10-09T02:36:29.581Z,22.42
2022-10-09T02:38:58.354Z,19.73
2022-10-09T02:41:26.264Z,19.58
2022-10-09T02:43:53.514Z,20.02
2022-10-09T02:46:21.385Z,22.65
2022-10-09T02:48:48.558Z,20.27
2022-10-09T02:51:16.379Z,17.75
2022-10-09T02:53:44.213Z,23.38
2022-10-09T02:56:11.411Z,18.67
2022-10-09T02:58:38.778Z,21.30
2022-10-09T03:01:06.658Z,20.27
2022-10-09T03:03:33.914Z,17.63
2022-10-09T03:06:06.329Z,14.88
2022-10-09T03:08:33.823Z,17.17
2022-10-09T03:11:00.978Z,23.05
2022-10-09T03:13:28.313Z,20.08
2022-10-09T03:16:01.869Z,19.08
2022-10-09T03:18:29.105Z,16.02
2022-10-09T03:20:56.608Z,12.98
2022-10-09T03:23:24.175Z,14.88
2022-10-09T03:26:02.772Z,12.52
2022-10-09T03:28:30.642Z,17.25
2022-10-09T03:30:57.912Z,15.82
2022-10-09T03:33:25.182Z,26.83
2022-10-09T03:35:52.574Z,10.77
2022-10-09T03:38:19.823Z,11.68
2022-10-09T03:40:46.949Z,15.30
2022-10-09T03:43:14.407Z,11.23
2022-10-09T03:45:43.153Z,11.25
2022-10-09T03:48:13.930Z,10.50
2022-10-09T03:50:42.539Z,9.40
2022-10-09T03:53:11.743Z,14.43
2022-10-09T03:55:39.459Z,9.32
2022-10-09T03:58:07.696Z,13.15
2022-10-09T04:00:35.543Z,15.02
2022-10-09T04:03:03.307Z,10.40
2022-10-09T04:13:44.624Z,16.23
2022-10-09T04:16:12.882Z,8.88
2022-10-09T04:18:40.887Z,10.15
2022-10-09T04:21:08.463Z,12.07
2022-10-09T04:23:36.044Z,16.90
2022-10-09T04:26:03.334Z,16.73
2022-10-09T04:28:31.865Z,12.95
2022-10-09T04:30:59.774Z,17.42
2022-10-09T04:33:27.594Z,16.63
2022-10-09T04:35:55.903Z,21.15
2022-10-09T04:38:24.049Z,11.90
2022-10-09T04:41:01.308Z,19.70
2022-10-09T04:43:29.552Z,10.23
2022-10-09T04:45:57.062Z,8.50
2022-10-09T04:48:24.843Z,12.73
2022-10-09T04:50:52.304Z,12.57
2022-10-09T04:53:19.524Z,9.20
2022-10-09T04:55:46.857Z,10.80
2022-10-09T04:58:14.903Z,10.07
2022-10-09T05:00:43.588Z,11.63
2022-10-09T05:03:11.728Z,10.40
2022-10-09T05:05:39.787Z,15.88
2022-10-09T05:08:07.085Z,10.45
2022-10-09T05:10:34.540Z,8.73
2022-10-09T05:13:02.208Z,6.15
2022-10-09T05:15:29.318Z,7.72
2022-10-09T05:17:56.583Z,12.15
2022-10-09T05:20:23.968Z,8.48
2022-10-09T05:22:51.391Z,13.52
2022-10-09T05:25:18.853Z,9.80
2022-10-09T05:27:46.233Z,13.38
2022-10-09T05:30:13.709Z,10.73
2022-10-09T05:32:40.945Z,16.17
2022-10-09T05:35:08.739Z,9.57
2022-10-09T05:37:35.886Z,15.10
2022-10-09T05:40:03.129Z,13.52
2022-10-09T05:42:30.540Z,11.35
2022-10-09T05:44:57.719Z,16.40
2022-10-09T05:47:25.137Z,18.58
2022-10-09T05:49:53.024Z,15.50
2022-10-09T05:52:20.359Z,14.43
2022-10-09T05:54:47.780Z,18.95
2022-10-09T05:57:14.939Z,19.73
2022-10-09T05:59:42.099Z,12.25
2022-10-09T06:02:09.609Z,11.52
2022-10-09T06:04:36.817Z,8.93
2022-10-09T06:07:04.064Z,9.25
2022-10-09T06:09:31.484Z,9.07
2022-10-09T06:11:58.813Z,12.00
2022-10-09T06:14:26.310Z,8.10
2022-10-09T06:16:53.823Z,16.27
2022-10-09T06:19:21.307Z,11.60
2022-10-09T06:21:49.353Z,7.90
2022-10-09T06:24:22.251Z,5.40
2022-10-09T06:26:53.109Z,10.52
2022-10-09T06:29:20.764Z,7.35
2022-10-09T06:31:47.999Z,13.30
2022-10-09T06:34:15.115Z,12.57
2022-10-09T06:36:42.609Z,8.27
2022-10-09T06:39:10.765Z,7.10
2022-10-09T06:41:38.035Z,9.68
2022-10-09T06:44:23.584Z,6.65
2022-10-09T06:46:50.779Z,11.23
2022-10-09T06:49:18.228Z,10.27
2022-10-09T06:51:45.788Z,5.68
2022-10-09T06:54:15.302Z,4.38
2022-10-09T06:56:42.578Z,6.35
2022-10-09T06:59:11.486Z,5.25
2022-10-09T07:01:47.973Z,5.35
2022-10-09T07:04:17.843Z,4.72
2022-10-09T07:06:47.059Z,4.15
2022-10-09T07:09:15.619Z,10.20
2022-10-09T07:11:46.214Z,7.35
2022-10-09T07:14:16.195Z,4.65
2022-10-09T07:16:49.997Z,2.58
2022-10-09T07:19:18.457Z,4.78
2022-10-09T07:21:48.406Z,5.65
2022-10-09T07:24:17.368Z,11.27
2022-10-09T07:26:45.905Z,11.77
2022-10-09T07:29:16.004Z,4.72
2022-10-09T07:31:44.249Z,6.75
2022-10-09T07:34:11.926Z,4.43
2022-10-09T07:36:39.465Z,4.03
2022-10-09T07:39:07.508Z,8.10
2022-10-09T07:41:35.191Z,8.65
2022-10-09T07:44:03.077Z,4.03
2022-10-09T07:46:33.624Z,12.48
2022-10-09T07:49:02.231Z,4.47
2022-10-09T07:51:31.459Z,5.47
2022-10-09T07:54:00.466Z,6.63
2022-10-09T07:56:30.555Z,7.47
2022-10-09T07:59:04.337Z,2.80
2022-10-09T08:01:33.843Z,4.10
2022-10-09T08:04:02.460Z,3.75
2022-10-09T08:06:30.155Z,7.00
2022-10-09T08:08:59.825Z,2.60
2022-10-09T08:11:29.596Z,4.85
2022-10-09T08:13:57.513Z,2.85
2022-10-09T08:16:25.757Z,3.20
2022-10-09T08:18:58.470Z,3.67
2022-10-09T08:21:27.982Z,3.78
2022-10-09T08:23:57.805Z,6.00
2022-10-09T08:26:26.368Z,4.95
2022-10-09T08:28:56.329Z,2.95
2022-10-09T08:31:24.722Z,2.92
2022-10-09T08:33:56.508Z,3.03
2022-10-09T08:36:24.724Z,2.42
2022-10-09T08:38:52.685Z,6.95
2022-10-09T08:41:48.744Z,7.80
2022-10-09T08:44:19.030Z,6.68
2022-10-09T08:46:56.897Z,9.38
2022-10-09T08:49:52.779Z,2.38
2022-10-09T08:52:39.818Z,3.38
2022-10-09T08:55:20.082Z,5.97
2022-10-09T08:57:52.242Z,6.47
2022-10-09T09:00:22.872Z,3.28
2022-10-09T09:03:02.850Z,7.25
2022-10-09T09:05:41.615Z,3.38
2022-10-09T09:08:17.211Z,6.07
2022-10-09T09:11:16.122Z,2.92
2022-10-09T09:13:55.049Z,5.00
2022-10-09T09:16:53.734Z,8.13
2022-10-09T09:19:45.926Z,4.20
2022-10-09T09:22:15.737Z,4.28
2022-10-09T09:24:53.122Z,4.90
2022-10-09T09:27:27.791Z,6.25
2022-10-09T09:30:03.579Z,4.85
2022-10-09T09:32:33.172Z,4.50
2022-10-09T09:35:16.336Z,4.38
2022-10-09T09:37:43.896Z,4.13
2022-10-09T09:40:36.834Z,2.45
2022-10-09T09:43:13.757Z,3.10
2022-10-09T09:45:44.028Z,4.35
2022-10-09T09:48:17.732Z,5.60
2022-10-09T09:50:59.931Z,10.95
2022-10-09T09:53:41.657Z,5.68
2022-10-09T09:56:10.486Z,4.50
2022-10-09T09:58:47.715Z,3.47
2022-10-09T10:01:29.206Z,3.85
2022-10-09T10:03:59.294Z,3.63
2022-10-09T10:06:32.275Z,6.18
2022-10-09T10:09:05.876Z,2.88
2022-10-09T10:11:35.997Z,5.63
2022-10-09T10:14:09.116Z,6.05
2022-10-09T10:16:39.379Z,6.80
2022-10-09T10:19:18.887Z,4.35
2022-10-09T10:21:59.608Z,6.45
2022-10-09T10:24:42.836Z,6.50
2022-10-09T10:27:22.991Z,7.13
2022-10-09T10:29:55.059Z,4.60
2022-10-09T10:32:47.156Z,4.95
2022-10-09T10:35:23.979Z,4.90
2022-10-09T10:38:03.385Z,9.20
2022-10-09T10:40:37.816Z,3.47
2022-10-09T10:43:18.985Z,2.05
2022-10-09T10:46:15.062Z,3.75
2022-10-09T10:48:47.285Z,3.50
2022-10-09T10:51:33.488Z,6.80
2022-10-09T10:56:54.184Z,4.22
2022-10-09T10:59:40.200Z,9.57
2022-10-09T11:02:32.580Z,8.07
2022-10-09T11:05:03.296Z,6.32
2022-10-09T11:07:45.447Z,3.25
2022-10-09T11:10:39.236Z,4.07
2022-10-09T11:13:30.579Z,5.53
2022-10-09T11:16:28.671Z,6.38
2022-10-09T11:19:27.048Z,5.72
2022-10-09T11:22:00.863Z,3.33
2022-10-09T11:24:31.448Z,4.18
2022-10-09T11:27:07.220Z,3.47
2022-10-09T11:30:01.239Z,2.53
2022-10-09T11:35:20.899Z,2.45
2022-10-09T11:38:02.478Z,5.90
2022-10-09T11:40:43.106Z,4.47
2022-10-09T11:43:28.816Z,5.90
2022-10-09T11:46:24.375Z,5.90
2022-10-09T11:48:51.659Z,5.47
2022-10-09T11:51:19.298Z,4.20
2022-10-09T11:53:47.485Z,5.18
2022-10-09T11:56:27.185Z,2.80
2022-10-09T11:59:07.120Z,4.93
2022-10-09T12:01:43.177Z,3.72
2022-10-09T12:04:13.691Z,2.97
2022-10-09T12:06:53.891Z,3.10
2022-10-09T12:09:27.866Z,4.78
2022-10-09T12:12:00.039Z,6.00
2022-10-09T12:14:30.046Z,5.70
2022-10-09T12:16:58.184Z,4.93
2022-10-09T12:19:30.517Z,5.95
2022-10-09T12:22:12.848Z,5.22
2022-10-09T12:24:47.087Z,4.63
2022-10-09T12:27:28.416Z,5.25
2022-10-09T12:30:00.097Z,4.30
2022-10-09T12:32:35.775Z,4.00
2022-10-09T12:37:40.316Z,6.55
2022-10-09T12:40:22.585Z,5.90
2022-10-09T12:42:52.827Z,7.45
2022-10-09T12:45:26.213Z,3.97
2022-10-09T12:47:55.026Z,3.00
2022-10-09T12:50:31.019Z,4.13
2022-10-09T12:52:59.886Z,4.85
2022-10-09T12:55:33.426Z,2.53
2022-10-09T12:58:22.436Z,6.30
2022-10-09T13:00:53.488Z,5.78
2022-10-09T13:03:41.236Z,4.07
2022-10-09T13:06:16.217Z,6.55
2022-10-09T13:08:44.806Z,10.82
2022-10-09T13:11:34.259Z,1.42
2022-10-09T13:14:02.503Z,5.55
2022-10-09T13:16:48.946Z,4.13
2022-10-09T13:19:31.805Z,4.07
2022-10-09T13:22:16.396Z,3.25
2022-10-09T13:24:44.088Z,5.65
2022-10-09T13:27:14.797Z,6.80
2022-10-09T13:29:43.869Z,4.35
2022-10-09T13:32:16.245Z,4.05
2022-10-09T13:34:45.579Z,3.53
2022-10-09T13:37:23.721Z,2.10
2022-10-09T13:40:00.913Z,3.70
2022-10-09T13:42:32.678Z,3.95
2022-10-09T13:45:00.350Z,4.50
2022-10-09T13:47:27.826Z,2.00
2022-10-09T13:49:55.568Z,4.13
2022-10-09T13:52:23.143Z,7.50
2022-10-09T13:54:50.424Z,2.42
2022-10-09T13:57:17.974Z,4.60
2022-10-09T13:59:45.588Z,5.68
2022-10-09T14:02:13.163Z,4.05
2022-10-09T14:04:40.670Z,3.63
2022-10-09T14:07:08.393Z,4.45
2022-10-09T14:09:35.776Z,6.60
2022-10-09T14:12:03.089Z,3.10
2022-10-09T14:14:30.868Z,6.00
2022-10-09T14:16:58.337Z,4.95
2022-10-09T14:19:27.888Z,4.57
2022-10-09T14:21:57.136Z,4.53
2022-10-09T14:24:26.254Z,4.28
2022-10-09T14:26:53.549Z,2.13
2022-10-09T14:29:21.197Z,8.27
2022-10-09T14:31:51.515Z,2.38
2022-10-09T14:34:18.827Z,3.15
2022-10-09T14:36:46.725Z,4.40
2022-10-09T14:39:14.251Z,8.80
2022-10-09T14:41:42.095Z,8.18
2022-10-09T14:44:11.187Z,4.07
2022-10-09T14:46:39.655Z,5.45
2022-10-09T14:49:08.419Z,5.93
2022-10-09T14:51:38.026Z,2.55
2022-10-09T14:54:07.263Z,2.58
2022-10-09T14:56:35.835Z,6.18
2022-10-09T14:59:06.099Z,3.83
2022-10-09T15:01:34.514Z,4.68
2022-10-09T15:04:03.021Z,6.53
2022-10-09T15:06:31.030Z,9.52
2022-10-09T15:09:04.584Z,6.15
2022-10-09T15:11:34.758Z,6.00
2022-10-09T15:14:03.237Z,6.03
2022-10-09T15:16:31.250Z,5.22
2022-10-09T15:18:59.334Z,2.80
2022-10-09T15:21:30.746Z,7.05
2022-10-09T15:23:59.676Z,5.47
2022-10-09T15:26:29.612Z,5.57
2022-10-09T15:28:57.909Z,9.45
2022-10-09T15:31:34.005Z,7.72
2022-10-09T15:34:01.818Z,11.20
2022-10-09T15:36:33.330Z,6.97
2022-10-09T15:39:03.379Z,5.15
2022-10-09T15:41:32.833Z,6.82
2022-10-09T15:44:03.763Z,6.13
2022-10-09T15:46:31.914Z,5.15
2022-10-09T15:48:59.404Z,6.78
2022-10-09T15:51:27.179Z,10.20
2022-10-09T15:53:56.955Z,7.03
2022-10-09T15:56:26.487Z,7.55
2022-10-09T15:58:55.514Z,10.65
2022-10-09T16:01:27.234Z,8.07
2022-10-09T16:03:54.894Z,28.70
2022-10-09T16:06:24.319Z,13.25
2022-10-09T16:08:56.454Z,9.93
2022-10-09T16:11:26.578Z,12.75
2022-10-09T16:13:55.972Z,11.38
2022-10-09T16:16:27.692Z,12.52
2022-10-09T16:18:57.174Z,16.20
2022-10-09T16:21:27.786Z,15.50
2022-10-09T16:23:59.056Z,14.90
2022-10-09T16:26:30.768Z,18.05
2022-10-09T16:29:00.529Z,18.92
2022-10-09T16:31:32.359Z,35.08
2022-10-09T16:34:01.735Z,22.33
2022-10-09T16:36:29.584Z,32.97
2022-10-09T16:38:58.672Z,24.25
2022-10-09T16:41:27.505Z,30.40
2022-10-09T16:43:56.633Z,25.80
2022-10-09T16:49:05.855Z,28.92
2022-10-09T16:51:35.979Z,40.42
2022-10-09T16:54:05.948Z,32.65
2022-10-09T16:56:36.785Z,24.80
2022-10-09T16:59:08.780Z,25.83
2022-10-09T17:01:38.208Z,26.02
2022-10-09T17:04:05.803Z,25.98
2022-10-09T17:06:33.822Z,24.63
2022-10-09T17:09:01.439Z,25.25
2022-10-09T17:11:30.844Z,29.73
2022-10-09T17:13:58.629Z,36.95
2022-10-09T17:16:29.662Z,39.28
2022-10-09T17:19:16.306Z,78.18
2022-10-09T17:21:44.026Z,55.13
2022-10-09T17:24:15.413Z,44.20
2022-10-09T17:26:43.099Z,40.83
2022-10-09T17:29:10.479Z,76.72
2022-10-09T17:31:38.210Z,96.13
2022-10-09T17:34:06.095Z,81.90
2022-10-09T17:36:36.714Z,72.03
2022-10-09T17:39:07.625Z,79.78
2022-10-09T17:41:35.350Z,132.75
2022-10-09T17:44:02.836Z,149.80
2022-10-09T17:46:31.098Z,68.50
2022-10-09T17:48:59.814Z,94.93
2022-10-09T17:51:31.353Z,93.20
2022-10-09T17:54:01.616Z,88.13
2022-10-09T17:56:30.509Z,79.32
2022-10-09T17:59:01.909Z,78.78
2022-10-09T18:01:29.385Z,91.32
2022-10-09T18:03:57.006Z,89.47
2022-10-09T18:06:25.178Z,48.42
2022-10-09T18:08:55.134Z,41.92
2022-10-09T18:11:24.419Z,50.72
2022-10-09T18:13:52.892Z,57.05
2022-10-09T18:16:25.215Z,57.25
2022-10-09T18:18:52.994Z,68.07
2022-10-09T18:21:20.336Z,49.38
2022-10-09T18:23:48.295Z,43.05
2022-10-09T18:26:18.677Z,74.10
2022-10-09T18:28:48.450Z,78.10
2022-10-09T18:31:19.996Z,152.90
2022-10-09T18:33:47.827Z,108.63
2022-10-09T18:36:20.027Z,89.82
2022-10-09T18:38:50.066Z,92.88
2022-10-09T18:41:19.168Z,95.13
2022-10-09T18:43:47.785Z,77.20
2022-10-09T18:46:18.003Z,42.75
2022-10-09T18:48:45.915Z,40.30
2022-10-09T18:51:16.822Z,46.92
2022-10-09T18:53:51.209Z,53.63
2022-10-09T18:56:21.139Z,62.85
2022-10-09T18:58:52.780Z,74.93
2022-10-09T19:01:20.603Z,82.78
2022-10-09T19:03:50.155Z,97.95
2022-10-09T19:06:19.377Z,82.35
2022-10-09T19:08:47.393Z,82.53
2022-10-09T19:11:15.768Z,90.70
2022-10-09T19:13:44.809Z,84.65
2022-10-09T19:16:12.595Z,71.85
2022-10-09T19:18:40.034Z,66.82
2022-10-09T19:21:13.269Z,59.15
2022-10-09T19:23:41.089Z,45.55
2022-10-09T19:26:08.728Z,55.65
2022-10-09T19:28:38.843Z,46.15
2022-10-09T19:31:07.916Z,49.25
2022-10-09T19:33:36.572Z,48.50
2022-10-09T19:36:04.618Z,51.08
2022-10-09T19:38:32.615Z,49.42
2022-10-09T19:41:11.676Z,66.63
2022-10-09T19:43:39.687Z,79.93
2022-10-09T19:46:08.836Z,139.50
2022-10-09T19:48:36.995Z,178.85
2022-10-09T19:51:09.817Z,182.50
2022-10-09T19:53:37.372Z,209.05
2022-10-09T19:56:14.195Z,216.10
2022-10-09T19:58:43.598Z,221.70
2022-10-09T20:01:12.601Z,188.38
2022-10-09T20:03:41.419Z,200.68
2022-10-09T20:06:10.137Z,220.18
2022-10-09T20:08:39.235Z,202.13
2022-10-09T20:11:07.679Z,191.18
2022-10-09T20:13:37.257Z,183.45
2022-10-09T20:16:08.129Z,151.63
2022-10-09T20:18:39.407Z,139.98
2022-10-09T20:21:07.355Z,127.18
2022-10-09T20:23:34.956Z,127.20
2022-10-09T20:26:14.457Z,135.00
2022-10-09T20:28:42.597Z,122.10
2022-10-09T20:31:14.911Z,104.35
2022-10-09T20:33:43.055Z,75.63
2022-10-09T20:36:23.136Z,85.43
2022-10-09T20:38:51.076Z,74.40
2022-10-09T20:41:18.657Z,73.90
2022-10-09T20:43:50.959Z,72.55
2022-10-09T20:46:21.149Z,82.15
2022-10-09T20:48:49.058Z,73.65
2022-10-09T20:51:17.685Z,83.90
2022-10-09T20:53:45.200Z,78.47
2022-10-09T20:56:14.876Z,76.20
2022-10-09T20:58:42.244Z,66.70
2022-10-09T21:01:12.460Z,66.45
2022-10-09T21:03:39.796Z,60.50
2022-10-09T21:06:12.973Z,58.83
2022-10-09T21:08:40.666Z,57.65
2022-10-09T21:11:11.841Z,64.07
2022-10-09T21:13:40.309Z,68.32
2022-10-09T21:16:09.636Z,75.47
2022-10-09T21:18:37.798Z,83.50
2022-10-09T21:21:09.538Z,93.47
2022-10-09T21:23:37.299Z,84.43
2022-10-09T21:26:12.332Z,77.60
2022-10-09T21:28:40.073Z,75.70
2022-10-09T21:31:13.004Z,60.28
2022-10-09T21:33:40.593Z,63.33
2022-10-09T21:36:13.403Z,74.50
2022-10-09T21:38:43.960Z,69.90
2022-10-09T21:41:12.015Z,73.43
2022-10-09T21:43:39.336Z,73.47
2022-10-09T21:46:06.916Z,72.68
2022-10-09T21:48:34.230Z,82.57
2022-10-09T21:51:02.171Z,75.43
2022-10-09T21:53:29.425Z,70.25
2022-10-09T21:55:56.745Z,72.68
2022-10-09T21:58:24.452Z,80.88
2022-10-09T22:01:00.184Z,64.75
2022-10-09T22:03:30.375Z,74.28
2022-10-09T22:05:58.643Z,75.97
2022-10-09T22:08:26.365Z,81.55
2022-10-09T22:10:56.678Z,74.75
2022-10-09T22:13:23.824Z,57.08
2022-10-09T22:15:51.546Z,60.40
2022-10-09T22:18:20.427Z,67.93
2022-10-09T22:20:51.651Z,63.47
2022-10-09T22:23:20.562Z,62.28
2022-10-09T22:25:58.718Z,54.92
2022-10-09T22:28:26.615Z,54.10
2022-10-09T22:31:06.464Z,60.95
2022-10-09T22:33:35.550Z,65.10
2022-10-09T22:36:14.094Z,67.85
2022-10-09T22:38:42.998Z,57.83
2022-10-09T22:41:16.849Z,69.40
2022-10-09T22:43:46.287Z,74.80
2022-10-09T22:46:16.218Z,86.97
2022-10-09T22:48:44.639Z,78.30
2022-10-09T22:51:14.488Z,74.47
2022-10-09T22:53:42.911Z,83.57
2022-10-09T22:56:15.593Z,75.32
2022-10-09T22:58:44.684Z,75.35
2022-10-09T23:01:20.699Z,69.72
2022-10-09T23:03:48.249Z,63.13
2022-10-09T23:06:18.854Z,65.32
2022-10-09T23:08:47.937Z,56.08
2022-10-09T23:11:17.020Z,57.25
2022-10-09T23:13:45.498Z,65.30
2022-10-09T23:16:14.466Z,65.00
2022-10-09T23:18:42.688Z,67.97
2022-10-09T23:21:14.414Z,58.88
2022-10-09T23:23:42.780Z,58.08
2022-10-09T23:26:13.335Z,61.67
2022-10-09T23:28:41.611Z,86.63
2022-10-09T23:31:11.971Z,156.30
2022-10-09T23:33:42.921Z,96.43
2022-10-09T23:36:16.122Z,92.60
2022-10-09T23:38:44.210Z,99.75
2022-10-09T23:41:13.596Z,150.52
2022-10-09T23:43:42.691Z,192.73
2022-10-09T23:46:19.657Z,106.32
2022-10-09T23:48:48.320Z,93.93
2022-10-09T23:51:16.251Z,100.05
2022-10-09T23:53:43.953Z,96.78
2022-10-09T23:56:17.754Z,136.55
2022-10-09T23:58:45.926Z,141.23
